Main page
METAR-TAF:

Airports :

Budapest, Hungary

Budapest Ferenc Liszt International Airport

latitude: 47-26N, longitude: 019-16E, elevation: 151 m

Current weather observation

The report was made 21 minutes ago, at 03:30 UTC
Wind 3 kt from variable directions
Temperature 15°C
Humidity 100%
Pressure 1016 hPa
Visibility 10 km or more
no clouds below 1500 m and no cumulonimbus

METAR: LHBP 280330Z VRB03KT CAVOK 15/15 Q1016 NOSIG

Time: 05:51 (03:51 UTC)

Forecast

The report was made 4 hours and 51 minutes ago, at 23:00 UTC
Forecast valid from 28 at 00 UTC to 28 at 24 UTC
Wind 6 kt from the East
Visibility 10 km or more
no clouds below 1500 m and no cumulonimbus
Temporary
from 28 at 00 UTC to 28 at 06 UTC
Wind 3 kt from variable directions
Becoming
from 28 at 08 UTC to 28 at 10 UTC
Wind 6 kt from the South
Becoming
from 28 at 20 UTC to 28 at 22 UTC
Wind 8 kt from the East

TAF: LHBP 272300Z 2800/2824 09006KT CAVOK TEMPO 2800/2806 VRB03KT BECMG 2808/2810 17006KT BECMG 2820/2822 09008KT

METAR-TAF

Weather observations and forecasts of more than 4000 airports (METAR and TAF reports).

The available stations are represented by yellow and red dots on the map.

Hover mouse over dot to see the name of the station.

Then click to see weather observations and forecasts.

To change the map : click on the green buttons with a black cross to zoom in, on the green button with a dash to zoom out, or on the green arrows for adjacent maps.


METAR-TAF: